Terminal Aerodrome Forecast
Issued by NWS

Home | Current Version | Previous Version | Text Only | Print | Product List | Glossary On
Versions: 1 2 3 4 5 6 7 8 9 10 11 12 13 14 15 16 17
118
FTUS46 KPDT 052320
TAFRDM
TAF
KRDM 052320Z 0600/0624 34008KT P6SM VCSH SCT030 BKN060
      TEMPO 0600/0603 VRB20G35KT 3SM -TSRA BKN025CB OVC050
     FM060400 32009KT P6SM VCSH SCT030 BKN050
     FM060900 VRB04KT P6SM SCT050 BKN200
     FM061800 34008KT P6SM SCT200
     FM062100 35011G18KT P6SM SCT200=

USA.gov is the U.S. government's official web portal to all federal, state and local government web resources and services.